Airport Name : Brandon Muni

Other Name : Brandon Muni

ICAO : CYBR

IATA : YBR

FAA :

Latitude : 49.91

Longitude : -99.951944

Country : Canada

Local Date and Time : 1/21/2018 12:30:00 PM

 

TAF (Terminal Aerodrome Forecast)

TAF CYBR 211738Z 2118/2206 10008KT 4SM BR BKN005 OVC012 TEMPO 2118/2206 6SM BR SCT005 OVC012 RMK NXT FCST BY 220000Z

 

METAR (METeorological Aerodrome Report)

CYBR 211800Z 16007KT 6SM BR OVC006 M06/M08 A3006 RMK ST8 SLP210

CYBR 211700Z 12006KT 6SM BR OVC006 M07/M08 A3007 RMK ST8 SLP215

CYBR 211634Z 10007KT 6SM BR OVC005 M07/M08 A3006 RMK ST8 SLP213

CYBR 211600Z 09009KT 5SM BR BKN006 OVC026 M07/M09 A3006 RMK ST6SC2 SLP210

CYBR 211500Z 08009KT 6SM BR BKN006 OVC026 M08/M09 A3004 RMK ST6SC2 SLP203